Observations for NORMAN WESTHEIMER, OK (OUN)

KOUN 250235Z AUTO 15012KT 10SM CLR 18/10 A2959 RMK AO2  
KOUN 250215Z AUTO 16012KT 10SM CLR 18/10 A2960 RMK AO2  
KOUN 250155Z AUTO 16012KT 10SM CLR 19/10 A2959 RMK AO2  
KOUN 250135Z AUTO 16014KT 10SM CLR 20/10 A2960 RMK AO2  
KOUN 250115Z AUTO 16011G18KT 10SM CLR 20/10 A2960 RMK AO2   
KOUN 250055Z AUTO 17015G20KT 10SM CLR 20/10 A2960 RMK AO2   
KOUN 250035Z AUTO 17012G17KT 10SM CLR 21/10 A2961 RMK AO2   
KOUN 250015Z AUTO 17012G22KT 10SM CLR 21/10 A2962 RMK AO2   
KOUN 242355Z AUTO 17016G24KT 10SM CLR 21/10 A2962 RMK AO2   
KOUN 242335Z AUTO 17017G24KT 10SM CLR 22/10 A2962 RMK AO2   
KOUN 242315Z AUTO 18017G24KT 10SM CLR 22/10 A2962 RMK AO2   
KOUN 242255Z AUTO 16023G27KT 10SM CLR 22/10 A2962 RMK AO2   
KOUN 242235Z AUTO 17019G24KT 10SM CLR 23/10 A2963 RMK AO2   
KOUN 242215Z AUTO 16016G23KT 10SM CLR 23/10 A2964 RMK AO2   
KOUN 242155Z AUTO 17017G27KT 10SM CLR 23/10 A2965 RMK AO2   
KOUN 242135Z AUTO 17018G25KT 10SM CLR 23/10 A2965 RMK AO2   
KOUN 242115Z AUTO 16021G27KT 10SM CLR 23/10 A2967 RMK AO2   
KOUN 242055Z AUTO 16018G26KT 10SM CLR 23/10 A2968 RMK AO2   
KOUN 242035Z AUTO 17021G26KT 10SM CLR 23/10 A2970 RMK AO2   
KOUN 242015Z AUTO 15014G24KT 10SM CLR 23/10 A2970 RMK AO2   
KOUN 241955Z AUTO 17019G25KT 10SM CLR 23/10 A2972 RMK AO2   
KOUN 241935Z AUTO 15019G23KT 10SM CLR 23/10 A2973 RMK AO2   
KOUN 241915Z AUTO 16019G25KT 10SM CLR 22/10 A2975 RMK AO2   
KOUN 241855Z AUTO 16014G21KT 10SM CLR 22/10 A2976 RMK AO2   
KOUN 241835Z AUTO 18015G20KT 10SM CLR 22/09 A2978 RMK AO2   
KOUN 241815Z AUTO 18018G22KT 10SM CLR 22/09 A2979 RMK AO2   
KOUN 241755Z AUTO 17022KT 10SM CLR 21/08 A2981 RMK AO2  
KOUN 241735Z AUTO 16019G22KT 10SM CLR 21/08 A2982 RMK AO2   
KOUN 241715Z AUTO 18017G22KT 10SM CLR 20/08 A2984 RMK AO2   
KOUN 241655Z AUTO 18016G20KT 10SM CLR 20/08 A2986 RMK AO2   
KOUN 241635Z AUTO 18016G23KT 10SM CLR 19/07 A2987 RMK AO2   
KOUN 241615Z AUTO 18017G23KT 10SM CLR 18/07 A2987 RMK AO2   
KOUN 241555Z AUTO 19019G24KT 10SM CLR 18/06 A2988 RMK AO2   
KOUN 241535Z AUTO 17014G20KT 10SM CLR 17/07 A2988 RMK AO2   
KOUN 241515Z AUTO 17015G21KT 10SM CLR 16/07 A2988 RMK AO2   
KOUN 241455Z AUTO 17015G20KT 10SM CLR 16/06 A2990 RMK AO2   
KOUN 241435Z AUTO 17014G18KT 10SM CLR 15/06 A2990 RMK AO2   
KOUN 241415Z AUTO 17012KT 10SM CLR 14/06 A2991 RMK AO2  
KOUN 241355Z AUTO 18011KT 10SM CLR 13/06 A2991 RMK AO2  
KOUN 241335Z AUTO 18010KT 10SM CLR 12/06 A2993 RMK AO2  
KOUN 241315Z AUTO 17011KT 10SM CLR 11/05 A2991 RMK AO2  
KOUN 241255Z AUTO 17011KT 10SM CLR 10/05 A2991 RMK AO2  
KOUN 241235Z AUTO 17010KT 10SM CLR 10/05 A2991 RMK AO2  
KOUN 241215Z AUTO 16009KT 10SM CLR 08/05 A2992 RMK AO2  
KOUN 241155Z AUTO 16008KT 10SM CLR 08/05 A2993 RMK AO2  
KOUN 241135Z AUTO 17007KT 10SM CLR 08/05 A2994 RMK AO2  
KOUN 241115Z AUTO 17006KT 10SM CLR 07/04 A2994 RMK AO2  
KOUN 241055Z AUTO 16005KT 10SM CLR 07/04 A2994 RMK AO2  
KOUN 241035Z AUTO 16005KT 10SM CLR 07/04 A2994 RMK AO2  
KOUN 241015Z AUTO 16005KT 10SM CLR 07/04 A2994 RMK AO2  
KOUN 240955Z AUTO 15004KT 10SM CLR 08/04 A2994 RMK AO2  
KOUN 240935Z AUTO 16003KT 10SM CLR 07/04 A2994 RMK AO2  
KOUN 240915Z AUTO 17004KT 10SM CLR 08/04 A2994 RMK AO2  
KOUN 240855Z AUTO 19004KT 10SM CLR 08/04 A2994 RMK AO2  
KOUN 240835Z AUTO 19005KT 10SM CLR 08/04 A2994 RMK AO2  
KOUN 240815Z AUTO 17008KT 10SM CLR 10/04 A2994 RMK AO2  
KOUN 240755Z AUTO 16007KT 10SM CLR 10/04 A2994 RMK AO2  
KOUN 240735Z AUTO 16007KT 10SM CLR 11/04 A2994 RMK AO2  
KOUN 240715Z AUTO 15008KT 10SM CLR 11/04 A2995 RMK AO2  
KOUN 240655Z AUTO 16006KT 10SM CLR 11/04 A2996 RMK AO2  
KOUN 240635Z AUTO 15006KT 10SM CLR 11/04 A2996 RMK AO2  
KOUN 240615Z AUTO 15006KT 10SM CLR 11/03 A2997 RMK AO2  
KOUN 240555Z AUTO 15005KT 10SM CLR 10/03 A2997 RMK AO2  
KOUN 240535Z AUTO 16003KT 10SM CLR 11/03 A2998 RMK AO2  
KOUN 240515Z AUTO 14004KT 10SM CLR 12/03 A2998 RMK AO2  
KOUN 240455Z AUTO 14005KT 10SM CLR 12/03 A2999 RMK AO2  
KOUN 240435Z AUTO 14005KT 10SM CLR 12/03 A2999 RMK AO2  
KOUN 240355Z AUTO 14004KT 10SM CLR 12/03 A3000 RMK AO2  
KOUN 240335Z AUTO 13005KT 10SM CLR 13/03 A3001 RMK AO2  
KOUN 240315Z AUTO 12005KT 10SM CLR 13/03 A3001 RMK AO2  
KOUN 240255Z AUTO 12003KT 10SM CLR 14/03 A3002 RMK AO2  
KOUN 240235Z AUTO 12004KT 10SM CLR 14/03 A3002 RMK AO2  
KOUN 240215Z AUTO 12004KT 10SM CLR 15/03 A3001 RMK AO2  
KOUN 240155Z AUTO 11005KT 10SM CLR 15/04 A3001 RMK AO2